createdAt,value
2022-08-22T00:00:23.245Z,87.97
2022-08-22T00:02:47.156Z,88.03
2022-08-22T00:03:26.544Z,89.35
2022-08-22T00:06:32.175Z,86.78
2022-08-22T00:10:08.771Z,83.45
2022-08-22T00:13:08.120Z,80.45
2022-08-22T00:16:09.305Z,81.57
2022-08-22T00:19:15.925Z,82.03
2022-08-22T00:22:12.429Z,87.13
2022-08-22T00:25:28.448Z,86.13
2022-08-22T00:28:24.530Z,86.57
2022-08-22T00:31:36.711Z,85.35
2022-08-22T00:34:34.168Z,86.10
2022-08-22T00:37:32.365Z,87.45
2022-08-22T00:40:43.723Z,85.47
2022-08-22T00:44:04.645Z,91.93
2022-08-22T00:47:19.878Z,84.57
2022-08-22T00:53:34.874Z,82.32
2022-08-22T00:56:47.987Z,82.20
2022-08-22T00:59:56.278Z,82.18
2022-08-22T01:03:18.552Z,83.10
2022-08-22T01:06:20.676Z,83.85
2022-08-22T01:09:27.027Z,86.50
2022-08-22T01:12:33.380Z,85.35
2022-08-22T01:15:25.967Z,85.20
2022-08-22T01:18:29.959Z,83.13
2022-08-22T01:21:51.493Z,82.82
2022-08-22T01:25:18.447Z,82.13
2022-08-22T01:28:50.480Z,81.15
2022-08-22T01:31:46.516Z,83.53
2022-08-22T01:35:14.766Z,81.22
2022-08-22T01:38:26.105Z,81.28
2022-08-22T01:41:24.732Z,84.93
2022-08-22T01:44:45.141Z,82.85
2022-08-22T01:47:54.452Z,79.28
2022-08-22T01:50:47.292Z,82.68
2022-08-22T01:53:42.676Z,79.00
2022-08-22T01:56:41.781Z,80.28
2022-08-22T01:59:42.443Z,80.15
2022-08-22T02:02:51.279Z,81.53
2022-08-22T02:06:03.045Z,78.60
2022-08-22T02:09:08.655Z,80.30
2022-08-22T02:12:45.254Z,81.38
2022-08-22T02:15:41.210Z,77.78
2022-08-22T02:18:42.259Z,81.68
2022-08-22T02:21:55.296Z,81.43
2022-08-22T02:24:54.632Z,83.25
2022-08-22T02:27:54.154Z,84.53
2022-08-22T02:31:03.997Z,82.32
2022-08-22T02:33:58.340Z,83.15
2022-08-22T02:37:13.142Z,82.25
2022-08-22T02:40:46.556Z,83.60
2022-08-22T02:43:45.257Z,78.93
2022-08-22T02:46:54.708Z,79.05
2022-08-22T02:49:51.895Z,78.20
2022-08-22T02:53:02.834Z,80.78
2022-08-22T02:56:00.628Z,81.63
2022-08-22T02:58:53.775Z,79.18
2022-08-22T03:01:46.752Z,77.28
2022-08-22T03:04:33.850Z,81.20
2022-08-22T03:07:20.735Z,77.03
2022-08-22T03:10:26.191Z,79.13
2022-08-22T03:13:24.969Z,80.13
2022-08-22T03:16:34.064Z,78.38
2022-08-22T03:19:56.516Z,75.65
2022-08-22T03:22:48.544Z,72.78
2022-08-22T03:26:13.085Z,75.95
2022-08-22T03:29:08.129Z,73.03
2022-08-22T03:32:07.028Z,79.70
2022-08-22T03:35:09.236Z,76.80
2022-08-22T03:38:23.274Z,77.45
2022-08-22T03:41:22.676Z,73.47
2022-08-22T03:44:47.520Z,74.95
2022-08-22T03:48:03.710Z,75.50
2022-08-22T03:51:28.977Z,70.82
2022-08-22T03:54:40.404Z,72.88
2022-08-22T03:58:13.646Z,71.10
2022-08-22T04:01:41.975Z,73.97
2022-08-22T04:05:06.519Z,75.38
2022-08-22T04:08:01.946Z,74.63
2022-08-22T04:11:17.283Z,76.32
2022-08-22T04:14:13.293Z,75.60
2022-08-22T04:17:17.108Z,75.20
2022-08-22T04:20:19.567Z,77.38
2022-08-22T04:23:41.057Z,76.43
2022-08-22T04:26:49.103Z,75.35
2022-08-22T04:29:49.956Z,75.63
2022-08-22T04:32:43.983Z,74.75
2022-08-22T04:36:03.466Z,71.93
2022-08-22T04:39:09.091Z,70.55
2022-08-22T04:42:32.234Z,71.82
2022-08-22T04:45:29.747Z,69.28
2022-08-22T04:48:26.775Z,69.22
2022-08-22T04:51:25.907Z,71.57
2022-08-22T04:54:26.125Z,73.07
2022-08-22T04:57:45.653Z,71.93
2022-08-22T05:01:03.628Z,70.32
2022-08-22T05:04:22.907Z,71.43
2022-08-22T05:07:18.225Z,70.75
2022-08-22T05:10:22.941Z,72.05
2022-08-22T05:13:18.155Z,73.07
2022-08-22T05:16:12.421Z,74.72
2022-08-22T05:19:11.076Z,77.32
2022-08-22T05:22:01.802Z,79.60
2022-08-22T05:24:52.112Z,82.30
2022-08-22T05:27:44.276Z,80.57
2022-08-22T05:30:33.971Z,84.65
2022-08-22T05:33:30.408Z,86.82
2022-08-22T05:36:24.318Z,86.57
2022-08-22T05:39:21.944Z,86.47
2022-08-22T05:42:18.487Z,87.45
2022-08-22T05:45:08.554Z,86.55
2022-08-22T05:48:05.244Z,89.97
2022-08-22T05:50:58.627Z,95.22
2022-08-22T05:53:53.621Z,93.25
2022-08-22T05:56:49.888Z,91.85
2022-08-22T05:59:41.876Z,91.20
2022-08-22T06:03:00.195Z,94.57
2022-08-22T06:05:52.184Z,95.95
2022-08-22T06:08:44.317Z,102.05
2022-08-22T06:11:40.687Z,109.22
2022-08-22T06:14:52.213Z,126.05
2022-08-22T06:17:45.700Z,134.70
2022-08-22T06:20:45.903Z,143.40
2022-08-22T06:23:33.301Z,147.07
2022-08-22T06:26:21.541Z,153.75
2022-08-22T06:29:14.381Z,154.50
2022-08-22T06:32:08.544Z,152.18
2022-08-22T06:35:01.993Z,150.93
2022-08-22T06:37:50.996Z,148.98
2022-08-22T06:40:41.299Z,158.98
2022-08-22T06:43:36.801Z,167.57
2022-08-22T06:46:28.306Z,177.30
2022-08-22T06:49:16.776Z,182.65
2022-08-22T06:52:08.528Z,192.30
2022-08-22T06:55:03.054Z,188.48
2022-08-22T07:00:43.317Z,194.13
2022-08-22T07:03:36.888Z,189.70
2022-08-22T07:06:35.898Z,197.70
2022-08-22T07:09:25.440Z,201.85
2022-08-22T07:12:26.809Z,208.48
2022-08-22T07:15:39.863Z,217.48
2022-08-22T07:18:30.023Z,213.35
2022-08-22T07:21:42.539Z,209.88
2022-08-22T07:24:32.931Z,213.32
2022-08-22T07:27:25.906Z,211.02
2022-08-22T07:30:27.322Z,215.23
2022-08-22T07:33:44.304Z,208.30
2022-08-22T07:36:54.992Z,211.90
2022-08-22T07:39:54.177Z,204.35
2022-08-22T07:43:00.978Z,197.25
2022-08-22T07:45:55.818Z,185.70
2022-08-22T07:49:08.707Z,192.10
2022-08-22T07:52:00.629Z,184.65
2022-08-22T07:55:06.752Z,187.10
2022-08-22T07:57:58.066Z,181.48
2022-08-22T08:00:48.995Z,185.25
2022-08-22T08:03:36.900Z,187.93
2022-08-22T08:06:25.514Z,184.20
2022-08-22T08:09:16.888Z,184.23
2022-08-22T08:12:06.042Z,180.02
2022-08-22T08:14:55.828Z,176.30
2022-08-22T08:17:44.704Z,180.65
2022-08-22T08:20:34.624Z,185.73
2022-08-22T08:23:23.729Z,187.82
2022-08-22T08:26:15.963Z,189.90
2022-08-22T08:29:04.825Z,190.50
2022-08-22T08:31:53.050Z,198.23
2022-08-22T08:34:43.447Z,197.13
2022-08-22T08:37:41.551Z,195.80
2022-08-22T08:40:31.324Z,197.70
2022-08-22T08:43:34.879Z,195.40
2022-08-22T08:46:39.876Z,196.60
2022-08-22T08:49:42.118Z,214.05
2022-08-22T08:52:54.230Z,211.85
2022-08-22T08:56:12.165Z,213.63
2022-08-22T08:59:17.347Z,209.38
2022-08-22T09:02:13.891Z,211.18
2022-08-22T09:05:41.649Z,217.93
2022-08-22T09:08:34.598Z,216.25
2022-08-22T09:11:59.895Z,217.38
2022-08-22T09:15:31.625Z,228.20
2022-08-22T09:19:00.539Z,220.98
2022-08-22T09:22:05.538Z,221.73
2022-08-22T09:25:39.244Z,229.98
2022-08-22T09:29:00.391Z,222.93
2022-08-22T09:32:03.518Z,228.88
2022-08-22T09:35:22.565Z,225.27
2022-08-22T09:38:22.208Z,237.77
2022-08-22T09:41:41.255Z,242.82
2022-08-22T09:44:39.767Z,232.25
2022-08-22T09:47:34.563Z,230.32
2022-08-22T09:50:35.688Z,222.75
2022-08-22T09:54:01.195Z,225.43
2022-08-22T09:57:10.879Z,228.48
2022-08-22T10:00:01.057Z,242.38
2022-08-22T10:03:17.112Z,240.18
2022-08-22T10:06:13.157Z,234.32
2022-08-22T10:09:18.893Z,232.82
2022-08-22T10:12:19.523Z,241.20
2022-08-22T10:15:11.807Z,237.30
2022-08-22T10:18:20.456Z,240.57
2022-08-22T10:21:25.308Z,250.75
2022-08-22T10:24:43.553Z,258.60
2022-08-22T10:27:59.048Z,260.67
2022-08-22T10:30:57.864Z,255.80
2022-08-22T10:34:07.907Z,252.32
2022-08-22T10:37:15.680Z,247.95
2022-08-22T10:40:08.555Z,251.15
2022-08-22T10:43:05.956Z,255.07
2022-08-22T10:46:03.636Z,259.55
2022-08-22T10:49:05.939Z,260.95
2022-08-22T10:52:15.268Z,261.90
2022-08-22T10:55:13.669Z,266.50
2022-08-22T10:58:11.027Z,251.90
2022-08-22T11:01:01.377Z,248.73
2022-08-22T11:04:28.370Z,232.82
2022-08-22T11:07:50.224Z,219.18
2022-08-22T11:10:52.103Z,205.52
2022-08-22T11:13:46.473Z,196.57
2022-08-22T11:16:41.768Z,205.35
2022-08-22T11:19:57.516Z,225.43
2022-08-22T11:23:18.653Z,246.63
2022-08-22T11:26:15.141Z,243.40
2022-08-22T11:29:43.575Z,262.92
2022-08-22T11:32:36.752Z,265.35
2022-08-22T11:35:31.876Z,255.40
2022-08-22T11:38:22.187Z,242.00
2022-08-22T11:41:24.030Z,241.07
2022-08-22T11:44:29.796Z,246.43
2022-08-22T11:47:20.523Z,258.92
2022-08-22T11:50:35.204Z,275.30
2022-08-22T11:53:34.177Z,265.83
2022-08-22T11:56:27.311Z,267.20
2022-08-22T11:59:29.777Z,261.17
2022-08-22T12:02:26.292Z,263.17
2022-08-22T12:08:14.118Z,265.77
2022-08-22T12:11:07.033Z,248.68
2022-08-22T12:14:06.129Z,245.68
2022-08-22T12:17:08.774Z,255.38
2022-08-22T12:20:40.489Z,257.83
2022-08-22T12:23:49.745Z,256.00
2022-08-22T12:27:07.908Z,257.15
2022-08-22T12:30:14.208Z,257.40
2022-08-22T12:33:23.011Z,238.15
2022-08-22T12:36:45.266Z,230.68
2022-08-22T12:40:10.552Z,214.73
2022-08-22T12:46:15.557Z,215.45
2022-08-22T12:49:38.571Z,243.98
2022-08-22T12:53:03.034Z,248.70
2022-08-22T12:56:33.203Z,266.40
2022-08-22T12:59:23.706Z,263.40
2022-08-22T13:02:28.064Z,253.65
2022-08-22T13:05:24.794Z,233.82
2022-08-22T13:08:22.317Z,219.60
2022-08-22T13:11:23.016Z,220.80
2022-08-22T13:14:18.221Z,237.98
2022-08-22T13:17:25.068Z,250.25
2022-08-22T13:20:24.285Z,256.08
2022-08-22T13:23:20.036Z,253.15
2022-08-22T13:26:16.373Z,246.20
2022-08-22T13:29:39.349Z,255.85
2022-08-22T13:32:33.147Z,269.40
2022-08-22T13:36:10.893Z,253.48
2022-08-22T13:39:06.595Z,240.38
2022-08-22T13:42:00.253Z,224.77
2022-08-22T13:44:52.548Z,209.40
2022-08-22T13:47:50.881Z,197.55
2022-08-22T13:50:53.917Z,191.43
2022-08-22T13:54:01.892Z,186.82
2022-08-22T13:57:20.097Z,185.05
2022-08-22T14:00:29.110Z,205.48
2022-08-22T14:03:22.763Z,204.52
2022-08-22T14:06:36.857Z,206.65
2022-08-22T14:10:02.772Z,231.23
2022-08-22T14:12:55.796Z,243.20
2022-08-22T14:15:45.380Z,233.60
2022-08-22T14:18:45.685Z,249.55
2022-08-22T14:21:40.086Z,257.05
2022-08-22T14:24:45.927Z,257.52
2022-08-22T14:28:00.973Z,260.55
2022-08-22T14:31:07.164Z,255.30
2022-08-22T14:33:59.847Z,248.02
2022-08-22T14:37:13.003Z,251.77
2022-08-22T14:40:03.046Z,257.42
2022-08-22T14:43:01.605Z,255.80
2022-08-22T14:46:23.442Z,248.80
2022-08-22T14:49:20.358Z,241.82
2022-08-22T14:52:25.652Z,240.80
2022-08-22T14:55:26.452Z,237.00
2022-08-22T14:58:26.346Z,237.63
2022-08-22T15:01:19.639Z,245.48
2022-08-22T15:04:13.856Z,240.68
2022-08-22T15:07:05.539Z,239.70
2022-08-22T15:09:56.498Z,239.80
2022-08-22T15:12:51.375Z,240.00
2022-08-22T15:15:52.562Z,234.70
2022-08-22T15:18:51.422Z,233.63
2022-08-22T15:21:41.605Z,230.82
2022-08-22T15:24:29.458Z,230.10
2022-08-22T15:27:21.324Z,220.27
2022-08-22T15:30:20.342Z,215.93
2022-08-22T15:33:39.915Z,211.88
2022-08-22T15:36:30.336Z,218.02
2022-08-22T15:39:57.350Z,215.52
2022-08-22T15:42:49.021Z,210.30
2022-08-22T15:45:39.158Z,204.75
2022-08-22T15:48:39.214Z,206.85
2022-08-22T15:51:52.751Z,200.25
2022-08-22T15:54:46.965Z,201.45
2022-08-22T15:57:42.243Z,196.80
2022-08-22T16:00:43.422Z,190.20
2022-08-22T16:03:34.198Z,184.38
2022-08-22T16:07:09.484Z,186.27
2022-08-22T16:09:59.569Z,177.02
2022-08-22T16:13:07.573Z,179.02
2022-08-22T16:16:01.750Z,179.48
2022-08-22T16:18:48.839Z,174.88
2022-08-22T16:21:39.208Z,174.00
2022-08-22T16:24:26.218Z,174.93
2022-08-22T16:27:22.823Z,174.95
2022-08-22T16:30:14.237Z,178.90
2022-08-22T16:33:01.901Z,173.63
2022-08-22T16:36:24.297Z,174.25
2022-08-22T16:39:23.112Z,172.25
2022-08-22T16:42:13.410Z,167.63
2022-08-22T16:45:05.433Z,172.35
2022-08-22T16:47:59.339Z,174.38
2022-08-22T16:51:01.872Z,172.73
2022-08-22T16:54:11.316Z,169.10
2022-08-22T16:57:07.666Z,167.40
2022-08-22T17:00:13.381Z,164.38
2022-08-22T17:03:25.507Z,163.45
2022-08-22T17:06:37.313Z,164.88
2022-08-22T17:09:43.388Z,166.45
2022-08-22T17:12:45.499Z,162.23
2022-08-22T17:16:17.620Z,164.00
2022-08-22T17:19:20.008Z,159.32
2022-08-22T17:22:41.505Z,163.75
2022-08-22T17:25:53.241Z,165.13
2022-08-22T17:28:42.506Z,161.02
2022-08-22T17:31:46.347Z,162.35
2022-08-22T17:34:43.855Z,158.88
2022-08-22T17:37:55.101Z,158.63
2022-08-22T17:41:11.770Z,154.88
2022-08-22T17:44:04.965Z,152.07
2022-08-22T17:47:27.375Z,149.30
2022-08-22T17:50:30.796Z,146.30
2022-08-22T17:53:33.151Z,149.85
2022-08-22T17:56:45.626Z,147.68
2022-08-22T17:59:37.012Z,149.15
2022-08-22T18:02:32.864Z,141.45
2022-08-22T18:05:22.653Z,143.10
2022-08-22T18:11:54.343Z,137.45
2022-08-22T18:14:59.701Z,136.10
2022-08-22T18:18:05.199Z,135.63
2022-08-22T18:21:05.690Z,134.38
2022-08-22T18:23:59.146Z,132.65
2022-08-22T18:26:57.832Z,132.93
2022-08-22T18:29:52.499Z,131.77
2022-08-22T18:32:55.540Z,130.10
2022-08-22T18:35:53.865Z,131.43
2022-08-22T18:38:59.975Z,129.77
2022-08-22T18:42:09.780Z,128.15
2022-08-22T18:44:57.221Z,126.65
2022-08-22T18:47:55.336Z,127.88
2022-08-22T18:50:42.853Z,124.68
2022-08-22T18:53:46.292Z,121.10
2022-08-22T18:56:54.705Z,124.00
2022-08-22T18:59:46.994Z,123.40
2022-08-22T19:03:14.706Z,123.05
2022-08-22T19:06:18.921Z,119.43
2022-08-22T19:09:27.526Z,119.18
2022-08-22T19:12:39.296Z,118.97
2022-08-22T19:15:50.736Z,119.50
2022-08-22T19:18:51.265Z,120.05
2022-08-22T19:21:57.054Z,120.88
2022-08-22T19:25:09.170Z,119.07
2022-08-22T19:28:11.538Z,117.55
2022-08-22T19:31:22.412Z,118.93
2022-08-22T19:34:35.653Z,117.82
2022-08-22T19:37:30.546Z,116.47
2022-08-22T19:40:45.406Z,117.75
2022-08-22T19:43:40.514Z,115.88
2022-08-22T19:46:38.193Z,116.05
2022-08-22T19:49:43.792Z,117.13
2022-08-22T19:52:46.764Z,114.80
2022-08-22T19:55:39.494Z,113.28
2022-08-22T19:58:32.776Z,113.88
2022-08-22T20:01:36.178Z,112.40
2022-08-22T20:05:08.677Z,112.32
2022-08-22T20:08:24.931Z,112.63
2022-08-22T20:11:45.425Z,110.90
2022-08-22T20:14:36.144Z,111.05
2022-08-22T20:17:25.913Z,108.88
2022-08-22T20:20:23.974Z,110.57
2022-08-22T20:23:29.680Z,110.47
2022-08-22T20:26:16.843Z,110.03
2022-08-22T20:29:07.237Z,109.55
2022-08-22T20:31:58.751Z,110.18
2022-08-22T20:34:47.657Z,110.25
2022-08-22T20:38:05.372Z,109.25
2022-08-22T20:41:05.580Z,108.50
2022-08-22T20:44:06.263Z,110.63
2022-08-22T20:47:02.135Z,108.55
2022-08-22T20:50:01.857Z,106.85
2022-08-22T20:52:51.998Z,106.68
2022-08-22T20:55:54.009Z,108.97
2022-08-22T20:58:47.119Z,109.05
2022-08-22T21:01:34.647Z,108.00
2022-08-22T21:04:25.530Z,111.10
2022-08-22T21:07:21.010Z,111.88
2022-08-22T21:10:48.939Z,112.10
2022-08-22T21:13:37.820Z,108.43
2022-08-22T21:16:33.479Z,108.70
2022-08-22T21:19:26.367Z,108.22
2022-08-22T21:22:29.545Z,106.95
2022-08-22T21:25:17.055Z,108.47
2022-08-22T21:28:04.132Z,105.97
2022-08-22T21:30:51.241Z,104.97
2022-08-22T21:33:43.712Z,107.28
2022-08-22T21:36:31.890Z,107.53
2022-08-22T21:39:36.618Z,106.53
2022-08-22T21:42:35.584Z,107.68
2022-08-22T21:45:37.994Z,103.85
2022-08-22T21:48:44.300Z,105.00
2022-08-22T21:51:44.162Z,101.97
2022-08-22T21:54:40.196Z,105.38
2022-08-22T21:57:35.609Z,106.60
2022-08-22T22:00:59.953Z,105.30
2022-08-22T22:03:47.591Z,100.53
2022-08-22T22:06:35.038Z,106.40
2022-08-22T22:09:22.645Z,106.13
2022-08-22T22:12:12.749Z,106.47
2022-08-22T22:14:59.998Z,105.95
2022-08-22T22:17:47.578Z,105.35
2022-08-22T22:20:34.768Z,105.47
2022-08-22T22:23:22.569Z,103.22
2022-08-22T22:26:09.625Z,106.30
2022-08-22T22:28:58.759Z,103.25
2022-08-22T22:31:45.771Z,102.90
2022-08-22T22:34:32.765Z,100.47
2022-08-22T22:37:19.803Z,101.47
2022-08-22T22:40:08.721Z,97.80
2022-08-22T22:42:55.895Z,95.68
2022-08-22T22:45:42.786Z,93.22
2022-08-22T22:48:29.901Z,90.78
2022-08-22T22:51:16.831Z,91.78
2022-08-22T22:54:03.878Z,93.60
2022-08-22T22:56:51.819Z,93.82
2022-08-22T22:59:38.951Z,95.45
2022-08-22T23:02:27.320Z,89.78
2022-08-22T23:05:14.547Z,89.35
2022-08-22T23:08:03.743Z,87.20
2022-08-22T23:10:50.758Z,86.63
2022-08-22T23:13:39.722Z,87.22
2022-08-22T23:16:32.895Z,83.28
2022-08-22T23:19:24.737Z,82.90
2022-08-22T23:22:11.715Z,80.10
2022-08-22T23:24:58.660Z,83.57
2022-08-22T23:27:52.104Z,85.80
2022-08-22T23:30:39.558Z,85.25
2022-08-22T23:33:26.520Z,80.85
2022-08-22T23:36:18.992Z,82.97
2022-08-22T23:39:07.069Z,20.88
2022-08-22T23:41:54.331Z,78.93
2022-08-22T23:44:42.535Z,80.47
2022-08-22T23:47:29.567Z,78.38
2022-08-22T23:50:16.533Z,78.00
2022-08-22T23:53:03.553Z,76.75
2022-08-22T23:55:50.590Z,78.70
2022-08-22T23:58:37.726Z,84.15
